< < Back
Terminal Aerodrome Forecast


Current Version              Previous Versions:   1  2  3  4  5  6  7  8  9  

Terminal Aerodrome Forecast

398
FTUS42 KCAE 060100 AAA
TAFCAE
TAF AMD
KCAE 060101Z 0601/0624 13003KT P6SM SCT200
     FM061400 07008KT P6SM BKN200=

Latest METAR

881
SAUS80 KWBC 061500
MTRCAE
METAR KCAE 061456Z VRB05KT 10SM FEW026 BKN220 24/14 A3021 RMK AO2 SLP228
T02390139 58004 PNO $


USA.gov is the U.S. government's official web portal to all federal, state and local government web resources and services.